Time;durP1;ratioP1;P1;durP2;ratioP2;P2;SDS_P1;SDS_P2;PMS_P1;PMS_P2;Temp;Humidity;BMP_temperature;BMP_pressure;BME280_temperature;BME280_humidity;BME280_pressure;Samples;Min_cycle;Max_cycle;Signal;HPM_P1;HPM_P2
2021/03/06 00:00:16;;;;;;;;;;;128.90;2022.40;;;;;;5015530;28;20025;-77
2021/03/06 00:02:42;;;;;;;15.27;6.70;;;128.90;2048.00;;;;;;5023023;28;20365;-77
2021/03/06 00:05:08;;;;;;;;;;;128.80;2048.00;;;;;;5033067;28;20024;-77
2021/03/06 00:07:35;;;;;;;9.13;5.97;;;128.90;2022.40;;;;;;5009590;28;19909;-77
2021/03/06 00:10:01;;;;;;;12.35;5.78;;;128.90;2022.40;;;;;;5014980;28;20389;-77
2021/03/06 00:12:26;;;;;;;;;;;128.90;2022.40;;;;;;5015310;28;20024;-77
2021/03/06 00:14:52;;;;;;;10.35;5.75;;;128.90;2022.40;;;;;;5031304;28;19912;-77
2021/03/06 00:17:18;;;;;;;;;;;128.60;2073.60;;;;;;5029768;28;20512;-77
2021/03/06 00:19:43;;;;;;;10.27;5.90;;;128.50;2099.20;;;;;;5021945;28;19996;-78
2021/03/06 00:22:09;;;;;;;;;;;128.60;2048.00;;;;;;5015258;28;20056;-77
2021/03/06 00:24:34;;;;;;;8.75;4.93;;;128.60;2048.00;;;;;;5031584;28;19905;-78
2021/03/06 00:27:00;;;;;;;;;;;128.70;1996.80;;;;;;5015361;28;20468;-77
2021/03/06 00:29:26;;;;;;;13.85;6.32;;;128.80;1971.20;;;;;;5014764;28;19905;-77
2021/03/06 00:31:51;;;;;;;;;;;128.70;1996.80;;;;;;5015353;28;20505;-77
2021/03/06 00:34:17;;;;;;;11.73;5.85;;;128.70;1996.80;;;;;;5022706;28;19975;-77
2021/03/06 00:36:43;;;;;;;;;;;128.80;1996.80;;;;;;5015193;28;20071;-77
2021/03/06 00:39:09;;;;;;;10.43;5.93;;;128.90;1971.20;;;;;;5032432;28;19905;-77
2021/03/06 00:41:34;;;;;;;;;;;128.80;1971.20;;;;;;5015142;28;20021;-78
2021/03/06 00:44:00;;;;;;;12.32;6.70;;;128.60;2022.40;;;;;;5014936;28;20359;-78
2021/03/06 00:46:26;;;;;;;;;;;128.80;1996.80;;;;;;5015103;28;20033;-77
2021/03/06 00:48:52;;;;;;;12.98;6.25;;;128.60;2048.00;;;;;;5014529;28;19911;-77
2021/03/06 00:51:18;;;;;;;;;;;128.80;2048.00;;;;;;5032735;28;20424;-77
2021/03/06 00:53:44;;;;;;;10.70;6.20;;;128.60;2022.40;;;;;;5032285;28;19917;-77
2021/03/06 00:56:09;;;;;;;10.30;5.90;;;128.60;2048.00;;;;;;5014549;28;20025;-77
2021/03/06 00:58:35;;;;;;;;;;;128.60;2022.40;;;;;;5015070;28;20032;-77
2021/03/06 01:01:01;;;;;;;11.57;6.50;;;128.60;2022.40;;;;;;5032046;28;19912;-77
2021/03/06 01:03:26;;;;;;;;;;;128.60;1996.80;;;;;;5014862;28;20381;-78
2021/03/06 01:05:52;;;;;;;12.27;6.65;;;128.60;2022.40;;;;;;5032044;28;19905;-77
2021/03/06 01:08:18;;;;;;;;;;;128.60;1971.20;;;;;;5032519;28;20547;-77
2021/03/06 01:10:45;;;;;;;17.77;6.72;;;128.60;1971.20;;;;;;5030987;28;19928;-77
2021/03/06 01:13:11;;;;;;;11.10;6.05;;;128.70;1945.60;;;;;;5014402;28;20021;-77
2021/03/06 01:15:37;;;;;;;;;;;128.80;1945.60;;;;;;5014915;28;20192;-78
2021/03/06 01:18:04;;;;;;;11.80;6.00;;;128.60;1945.60;;;;;;5031225;28;19912;-77
2021/03/06 01:20:31;;;;;;;13.40;5.90;;;128.60;1920.00;;;;;;5014239;28;20128;-77
2021/03/06 01:22:57;;;;;;;10.65;5.85;;;128.50;1945.60;;;;;;5011484;28;20112;-77
2021/03/06 01:25:22;;;;;;;;;;;128.50;1945.60;;;;;;5018369;28;20018;-77
2021/03/06 01:27:48;;;;;;;10.70;5.53;;;128.40;1920.00;;;;;;5017871;28;19959;-77
2021/03/06 01:30:15;;;;;;;10.35;6.18;;;128.40;1920.00;;;;;;5017787;28;20025;-77
2021/03/06 01:32:41;;;;;;;11.35;6.00;;;128.30;1945.60;;;;;;5033709;28;20046;-77
2021/03/06 01:35:11;;;;;;;12.65;5.63;;;128.20;1945.60;;;;;;5017360;28;20493;-78
2021/03/06 01:37:37;;;;;;;15.35;6.35;;;128.20;1945.60;;;;;;5017689;28;20040;-77
2021/03/06 01:40:15;;;;;;;12.93;7.10;;;128.10;1945.60;;;;;;5035431;28;20068;-77
2021/03/06 01:42:41;;;;;;;12.63;6.60;;;128.10;1945.60;;;;;;5033127;28;20036;-77
2021/03/06 01:45:09;;;;;;;12.98;6.35;;;128.40;1920.00;;;;;;5017968;28;20112;-77
2021/03/06 01:47:35;;;;;;;12.02;6.10;;;128.30;1920.00;;;;;;5035234;28;20384;-77
2021/03/06 01:50:04;;;;;;;12.75;6.20;;;128.10;1945.60;;;;;;5017526;28;20405;-77
2021/03/06 01:52:30;;;;;;;14.48;6.57;;;128.00;1920.00;;;;;;5034967;28;20100;-77
2021/03/06 01:54:57;;;;;;;11.23;6.25;;;128.00;1945.60;;;;;;5017460;28;20112;-77
2021/03/06 01:57:24;;;;;;;10.98;6.53;;;103.20;1920.00;;;;;;5017586;28;20370;-77
2021/03/06 01:59:50;;;;;;;14.52;7.00;;;128.00;1920.00;;;;;;5017418;28;20071;-77
2021/03/06 02:02:16;;;;;;;9.27;5.50;;;128.00;1920.00;;;;;;5017441;28;20033;-77
2021/03/06 02:04:42;;;;;;;13.45;6.78;;;103.30;1894.40;;;;;;5016976;28;20033;-77
2021/03/06 02:07:08;;;;;;;12.48;6.88;;;103.20;1920.00;;;;;;5017352;28;20028;-78
2021/03/06 02:09:33;;;;;;;;;;;103.30;1894.40;;;;;;5017806;28;20390;-77
2021/03/06 02:12:14;;;;;;;11.57;6.40;;;128.00;1894.40;;;;;;5032242;28;20551;-77
2021/03/06 02:14:51;;;;;;;12.18;6.22;;;128.30;1894.40;;;;;;5017222;28;20014;-77
2021/03/06 02:17:31;;;;;;;12.55;7.35;;;128.10;1894.40;;;;;;5017010;28;20094;-77
2021/03/06 02:20:30;;;;;;;11.43;6.18;;;128.10;1894.40;;;;;;5034422;28;20402;-76
2021/03/06 02:23:46;;;;;;;16.92;7.20;;;128.00;1894.40;;;;;;5034358;28;20021;-77
2021/03/06 02:26:32;;;;;;;15.52;7.05;;;103.20;1868.80;;;;;;4991951;28;20548;-77
2021/03/06 02:29:16;;;;;;;15.50;7.28;;;128.00;1894.40;;;;;;4976646;28;20034;-77
2021/03/06 02:31:44;;;;;;;12.13;7.60;;;103.30;1868.80;;;;;;4976688;28;20475;-77
2021/03/06 02:34:16;;;;;;;13.50;7.07;;;103.20;1894.40;;;;;;4976444;28;20053;-77
2021/03/06 02:36:48;;;;;;;15.50;8.18;;;103.10;1894.40;;;;;;4992534;28;20534;-77
2021/03/06 02:39:17;;;;;;;13.45;7.15;;;103.10;1868.80;;;;;;4976728;28;20037;-77
2021/03/06 02:41:45;;;;;;;12.90;7.30;;;103.20;1894.40;;;;;;4976613;28;20121;-77
2021/03/06 02:44:12;;;;;;;13.65;7.07;;;103.20;1868.80;;;;;;4976728;28;20422;-78
2021/03/06 02:46:39;;;;;;;13.45;7.35;;;103.10;1868.80;;;;;;4976403;28;20030;-78
2021/03/06 02:49:05;;;;;;;14.05;7.68;;;103.20;1843.20;;;;;;4976432;28;20053;-76
2021/03/06 02:51:42;;;;;;;12.73;7.35;;;103.00;1868.80;;;;;;4976621;28;20494;-77
2021/03/06 02:54:09;;;;;;;11.23;6.25;;;103.00;1868.80;;;;;;4974632;28;20033;-77
2021/03/06 02:56:37;;;;;;;12.60;7.15;;;103.00;1868.80;;;;;;4976544;28;20402;-77
2021/03/06 02:59:21;;;;;;;16.52;7.32;;;102.90;1868.80;;;;;;4993011;28;20014;-77
2021/03/06 03:02:22;;;;;;;16.58;8.02;;;102.90;1868.80;;;;;;5030805;28;20033;-77
2021/03/06 03:05:12;;;;;;;21.85;7.70;;;102.90;1868.80;;;;;;5033726;28;20132;-77
2021/03/06 03:08:01;;;;;;;11.25;5.93;;;102.90;1868.80;;;;;;5033372;28;20017;-77
2021/03/06 03:10:31;;;;;;;16.88;7.25;;;102.90;1868.80;;;;;;4993442;28;20088;-77
2021/03/06 03:13:08;;;;;;;15.70;6.97;;;103.00;1868.80;;;;;;4995144;28;20034;-76
2021/03/06 03:15:38;;;;;;;;;;;103.00;1817.60;;;;;;4995574;28;20045;-78
2021/03/06 03:18:05;;;;;;;11.77;6.20;;;103.10;1843.20;;;;;;5009510;28;19921;-77
2021/03/06 03:20:39;;;;;;;13.13;7.07;;;103.00;1843.20;;;;;;4995717;28;20022;-77
2021/03/06 03:23:21;;;;;;;13.68;6.95;;;102.90;1868.80;;;;;;4993225;28;20026;-77
2021/03/06 03:25:48;;;;;;;11.93;6.35;;;102.80;1868.80;;;;;;5009532;28;20022;-78
2021/03/06 03:28:15;;;;;;;11.98;6.45;;;102.80;1868.80;;;;;;4995213;28;20514;-77
2021/03/06 03:30:41;;;;;;;15.38;6.93;;;102.80;1868.80;;;;;;4995150;28;20025;-78
2021/03/06 03:33:12;;;;;;;12.60;6.13;;;102.80;1868.80;;;;;;5011276;28;20041;-77
2021/03/06 03:35:40;;;;;;;16.05;7.57;;;102.70;1894.40;;;;;;4994792;28;20125;-77
2021/03/06 03:38:07;;;;;;;12.13;7.10;;;102.90;1868.80;;;;;;5011365;28;20054;-77
2021/03/06 03:40:35;;;;;;;10.30;5.95;;;102.90;1843.20;;;;;;4995150;28;20529;-77
2021/03/06 03:43:01;;;;;;;11.63;6.43;;;103.00;1843.20;;;;;;4995077;28;20374;-77
2021/03/06 03:45:28;;;;;;;11.70;6.25;;;103.00;1843.20;;;;;;4994633;28;20109;-78
2021/03/06 03:47:54;;;;;;;12.02;6.40;;;102.90;1843.20;;;;;;5022209;28;20037;-77
2021/03/06 03:50:21;;;;;;;9.00;5.65;;;103.10;1817.60;;;;;;5015387;28;20108;-77
2021/03/06 03:52:48;;;;;;;12.57;6.28;;;103.10;1817.60;;;;;;5015508;28;20514;-77
2021/03/06 03:55:15;;;;;;;12.18;6.75;;;103.10;1817.60;;;;;;5033212;28;20017;-77
2021/03/06 03:57:44;;;;;;;11.10;5.47;;;103.00;1817.60;;;;;;5015221;28;20480;-77
2021/03/06 04:00:12;;;;;;;11.73;5.97;;;103.00;1792.00;;;;;;5015303;28;20013;-77
2021/03/06 04:02:38;;;;;;;11.43;6.20;;;103.00;1817.60;;;;;;5015240;28;20117;-77
2021/03/06 04:05:04;;;;;;;;;;;103.00;1792.00;;;;;;5015571;28;20373;-77
2021/03/06 04:07:46;;;;;;;8.40;4.55;;;102.70;1817.60;;;;;;5029779;28;20000;-77
2021/03/06 04:10:15;;;;;;;12.77;7.13;;;102.90;1792.00;;;;;;5013675;28;20026;-78
2021/03/06 04:12:41;;;;;;;15.68;8.52;;;102.80;1792.00;;;;;;5032898;28;20024;-78
2021/03/06 04:15:08;;;;;;;16.15;7.78;;;102.90;1766.40;;;;;;5015023;28;20024;-78
2021/03/06 04:17:34;;;;;;;12.25;7.47;;;103.00;1766.40;;;;;;5015176;28;20025;-77
2021/03/06 04:20:01;;;;;;;12.40;6.53;;;103.00;1740.80;;;;;;5015177;28;20386;-77
2021/03/06 04:22:27;;;;;;;15.57;6.10;;;103.00;1740.80;;;;;;5015116;28;20025;-77
2021/03/06 04:24:53;;;;;;;13.73;5.47;;;102.90;1740.80;;;;;;5015240;28;20018;-77
2021/03/06 04:27:18;;;;;;;;;;;102.90;1740.80;;;;;;5033112;28;20393;-77
2021/03/06 04:29:44;;;;;;;13.50;5.78;;;103.00;1740.80;;;;;;5022328;28;19913;-77
2021/03/06 04:32:10;;;;;;;13.20;6.30;;;103.00;1740.80;;;;;;5015152;28;20021;-77
2021/03/06 04:34:35;;;;;;;;;;;102.90;1740.80;;;;;;5032969;28;20517;-78
2021/03/06 04:37:01;;;;;;;15.45;5.65;;;102.80;1740.80;;;;;;5022600;28;19913;-77
2021/03/06 04:39:26;;;;;;;9.38;4.78;;;102.70;1766.40;;;;;;5015081;28;20029;-77
2021/03/06 04:41:52;;;;;;;13.48;6.10;;;102.70;1766.40;;;;;;5015062;28;20370;-77
2021/03/06 04:44:18;;;;;;;;;;;102.70;1766.40;;;;;;5015495;28;20053;-77
2021/03/06 04:46:43;;;;;;;10.35;6.00;;;102.70;1766.40;;;;;;5032621;28;19920;-77
2021/03/06 04:49:09;;;;;;;11.23;5.82;;;102.70;1766.40;;;;;;5014905;28;20380;-77
2021/03/06 04:51:35;;;;;;;11.15;5.93;;;102.70;1766.40;;;;;;5014980;28;20026;-77
2021/03/06 04:54:00;;;;;;;;;;;102.70;1740.80;;;;;;5015174;28;20033;-77
2021/03/06 04:56:26;;;;;;;11.57;6.15;;;102.70;1740.80;;;;;;5031136;28;19913;-77
2021/03/06 04:58:52;;;;;;;;;;;102.80;1740.80;;;;;;5017726;28;20013;-77
2021/03/06 05:01:18;;;;;;;11.75;5.25;;;102.90;1740.80;;;;;;5026962;28;20024;-77
2021/03/06 05:03:44;;;;;;;;;;;102.90;1715.20;;;;;;5018966;28;20025;-77
2021/03/06 05:06:10;;;;;;;10.45;4.65;;;102.90;1740.80;;;;;;5018389;28;19909;-77
2021/03/06 05:08:37;;;;;;;15.05;6.47;;;102.90;1715.20;;;;;;5018365;28;20018;-77
2021/03/06 05:11:02;;;;;;;;;;;102.80;1740.80;;;;;;5018665;28;20076;-77
2021/03/06 05:13:28;;;;;;;14.02;5.65;;;102.80;1740.80;;;;;;5018421;28;19913;-77
2021/03/06 05:15:53;;;;;;;12.25;6.07;;;102.60;1740.80;;;;;;5018388;28;20124;-77
2021/03/06 05:18:19;;;;;;;;;;;102.70;1766.40;;;;;;5018566;28;20036;-77
2021/03/06 05:20:45;;;;;;;11.88;6.57;;;102.70;1740.80;;;;;;5018132;28;20000;-77
2021/03/06 05:23:10;;;;;;;;;;;102.70;1740.80;;;;;;5018538;28;20022;-77
2021/03/06 05:25:36;;;;;;;16.27;6.18;;;102.80;1715.20;;;;;;5026371;28;19927;-78
2021/03/06 05:28:01;;;;;;;;;;;102.70;1740.80;;;;;;5018503;28;20022;-77
2021/03/06 05:30:27;;;;;;;13.25;6.80;;;102.60;1740.80;;;;;;5035704;28;19951;-78
2021/03/06 05:32:53;;;;;;;13.52;6.65;;;102.70;1715.20;;;;;;5032339;28;20026;-77
2021/03/06 05:35:19;;;;;;;;;;;102.70;1740.80;;;;;;5035975;28;20033;-77
2021/03/06 05:37:44;;;;;;;22.35;8.77;;;102.80;1740.80;;;;;;5035303;28;20323;-77
2021/03/06 05:40:10;;;;;;;;;;;102.80;1715.20;;;;;;5018336;28;20017;-77
2021/03/06 05:42:36;;;;;;;16.38;6.47;;;102.70;1740.80;;;;;;5032518;28;19913;-77
2021/03/06 05:45:05;;;;;;;10.82;5.50;;;102.70;1715.20;;;;;;5017726;28;20022;-77
2021/03/06 05:47:32;;;;;;;15.27;7.15;;;102.70;1715.20;;;;;;5035497;28;20013;-77
2021/03/06 05:49:58;;;;;;;10.43;5.60;;;102.90;1715.20;;;;;;5017706;28;20032;-77
2021/03/06 05:52:25;;;;;;;13.02;5.97;;;102.70;1715.20;;;;;;5017691;28;20040;-77
2021/03/06 05:54:53;;;;;;;12.73;5.55;;;102.70;1715.20;;;;;;5017336;28;20544;-77
2021/03/06 05:57:19;;;;;;;11.00;4.93;;;102.60;1740.80;;;;;;5034753;28;20037;-75
2021/03/06 05:59:46;;;;;;;9.15;5.63;;;102.70;1715.20;;;;;;5017039;28;20021;-77
2021/03/06 06:02:15;;;;;;;14.55;6.10;;;102.60;1715.20;;;;;;5017283;28;20032;-77
2021/03/06 06:04:42;;;;;;;14.77;5.65;;;102.70;1689.60;;;;;;5033541;28;20049;-77
2021/03/06 06:07:08;;;;;;;8.75;4.45;;;102.80;1715.20;;;;;;5016364;28;20473;-76
2021/03/06 06:09:34;;;;;;;9.80;4.55;;;102.70;1715.20;;;;;;5016903;28;20060;-77
2021/03/06 06:12:00;;;;;;;10.55;4.90;;;102.80;1689.60;;;;;;5017621;28;20060;-77
2021/03/06 06:14:26;;;;;;;;;;;102.90;1664.00;;;;;;5017626;28;20112;-76
2021/03/06 06:16:53;;;;;;;17.40;5.15;;;102.90;1664.00;;;;;;5031489;28;20012;-78
2021/03/06 06:19:19;;;;;;;11.90;4.80;;;102.70;1689.60;;;;;;5033160;28;20025;-78
2021/03/06 06:21:48;;;;;;;;;;;102.80;1689.60;;;;;;5033363;28;20080;-77
2021/03/06 06:24:19;;;;;;;12.32;5.03;;;102.90;1715.20;;;;;;5017557;28;19959;-78
2021/03/06 06:26:59;;;;;;;13.25;5.10;;;103.10;1638.40;;;;;;5018499;28;20026;-78
2021/03/06 06:29:42;;;;;;;16.52;5.13;;;103.00;1638.40;;;;;;5017120;28;20029;-77
2021/03/06 06:32:10;;;;;;;14.63;5.30;;;103.10;1638.40;;;;;;5034792;28;20492;-77
2021/03/06 06:34:37;;;;;;;16.02;5.70;;;103.20;1638.40;;;;;;5017105;28;20049;-77
2021/03/06 06:37:14;;;;;;;10.23;4.22;;;103.10;1612.80;;;;;;5017930;28;20034;-78
2021/03/06 06:39:42;;;;;;;14.80;6.10;;;103.30;1638.40;;;;;;5030964;28;20038;-77
2021/03/06 06:42:09;;;;;;;14.70;4.32;;;103.10;1612.80;;;;;;5016740;28;20044;-77
2021/03/06 06:44:36;;;;;;;9.77;4.90;;;103.00;1664.00;;;;;;5017040;28;20028;-77
2021/03/06 06:47:19;;;;;;;10.68;4.40;;;103.10;1612.80;;;;;;5016904;28;20053;-78
2021/03/06 06:49:49;;;;;;;11.70;4.30;;;103.00;1612.80;;;;;;5016671;28;20079;-77
2021/03/06 06:52:16;;;;;;;8.13;3.97;;;103.20;1587.20;;;;;;5017647;28;20036;-76
2021/03/06 06:54:51;;;;;;;10.18;4.55;;;103.00;1587.20;;;;;;5035318;28;20105;-77
2021/03/06 06:57:17;;;;;;;7.85;3.15;;;103.20;1587.20;;;;;;5018469;28;20036;-78
2021/03/06 07:00:02;;;;;;;8.85;4.35;;;103.20;1587.20;;;;;;5018153;28;20466;-77
2021/03/06 07:02:29;;;;;;;7.20;3.60;;;103.20;1561.60;;;;;;5034590;28;20029;-77
2021/03/06 07:04:57;;;;;;;11.77;4.25;;;103.20;1561.60;;;;;;5034594;28;20017;-77
2021/03/06 07:07:25;;;;;;;8.25;4.10;;;103.30;1561.60;;;;;;5017041;28;20036;-77
2021/03/06 07:09:58;;;;;;;9.10;3.97;;;128.00;1561.60;;;;;;5016570;28;20025;-77
2021/03/06 07:12:26;;;;;;;10.80;7.07;;;128.10;1561.60;;;;;;5034389;28;20025;-77
2021/03/06 07:14:52;;;;;;;9.70;4.32;;;103.30;1536.00;;;;;;5016338;28;20382;-77
2021/03/06 07:17:17;;;;;;;10.85;4.63;;;128.00;1536.00;;;;;;5016667;28;20033;-78
2021/03/06 07:19:43;;;;;;;;;;;128.10;1536.00;;;;;;5016651;28;20026;-77
2021/03/06 07:22:09;;;;;;;8.80;4.30;;;128.30;1536.00;;;;;;5031890;28;19912;-77
2021/03/06 07:24:35;;;;;;;7.75;3.78;;;128.40;1510.40;;;;;;5015969;28;20021;-77
2021/03/06 07:27:01;;;;;;;11.02;4.55;;;128.30;1484.80;;;;;;5016409;28;20022;-77
2021/03/06 07:29:29;;;;;;;12.98;5.78;;;128.40;1484.80;;;;;;5015350;28;20490;-78
2021/03/06 07:31:56;;;;;;;12.13;4.88;;;128.40;1484.80;;;;;;5016678;28;20030;-77
2021/03/06 07:34:25;;;;;;;9.40;3.70;;;128.40;1459.20;;;;;;5016253;28;20192;-78
2021/03/06 07:37:01;;;;;;;11.20;3.90;;;128.50;1459.20;;;;;;5016257;28;20067;-77
2021/03/06 07:39:27;;;;;;;;;;;128.50;1459.20;;;;;;5018289;28;20048;-77
2021/03/06 07:41:58;;;;;;;11.95;4.80;;;128.60;1459.20;;;;;;5017411;28;20349;-79
2021/03/06 07:44:26;;;;;;;10.82;4.32;;;128.70;1459.20;;;;;;5017609;28;20026;-77
2021/03/06 07:46:54;;;;;;;10.95;5.63;;;128.60;1433.60;;;;;;5034389;28;20469;-80
2021/03/06 07:49:26;;;;;;;22.67;7.95;;;128.60;1459.20;;;;;;5017405;28;20025;-79
2021/03/06 07:51:52;;;;;;;8.93;5.28;;;128.80;1459.20;;;;;;5018238;28;20028;-78
2021/03/06 07:54:18;;;;;;;9.43;3.38;;;128.90;1433.60;;;;;;5018847;28;20095;-77
2021/03/06 07:56:43;;;;;;;11.00;4.70;;;128.90;1408.00;;;;;;5025944;28;20041;-78
2021/03/06 07:59:09;;;;;;;;;;;153.70;1433.60;;;;;;5027989;28;20053;-80
2021/03/06 08:01:35;;;;;;;7.22;3.72;;;153.80;1433.60;;;;;;5035443;28;19912;-78
2021/03/06 08:04:05;;;;;;;8.55;4.28;;;153.90;1382.40;;;;;;5033452;28;20029;-77
2021/03/06 08:06:34;;;;;;;13.00;4.82;;;154.00;1433.60;;;;;;5015919;28;20033;-78
2021/03/06 08:09:03;;;;;;;9.57;4.55;;;153.90;1356.80;;;;;;5016329;28;20061;-78
2021/03/06 08:11:34;;;;;;;13.02;3.90;;;154.00;1356.80;;;;;;5017470;28;20120;-78
2021/03/06 08:14:04;;;;;;;9.32;3.85;;;154.00;1356.80;;;;;;5035390;28;20025;-78
2021/03/06 08:16:31;;;;;;;8.90;4.43;;;154.10;1356.80;;;;;;5019044;28;20397;-77
2021/03/06 08:19:01;;;;;;;12.35;4.50;;;154.10;1331.20;;;;;;5032095;28;20017;-79
2021/03/06 08:21:31;;;;;;;13.98;4.55;;;154.50;1356.80;;;;;;5015699;28;20041;-78
2021/03/06 08:24:15;;;;;;;9.63;4.43;;;154.50;1305.60;;;;;;5031808;28;20167;-78
2021/03/06 08:26:41;;;;;;;9.23;3.80;;;179.20;1305.60;;;;;;5031916;28;20025;-78
2021/03/06 08:29:22;;;;;;;11.23;3.60;;;179.20;1305.60;;;;;;5031885;28;20029;-79
2021/03/06 08:32:00;;;;;;;10.70;4.75;;;154.50;1280.00;;;;;;5034077;28;20021;-77
2021/03/06 08:34:29;;;;;;;8.35;3.88;;;179.30;1305.60;;;;;;5019144;28;20045;-78
2021/03/06 08:37:16;;;;;;;8.90;4.22;;;179.30;1280.00;;;;;;5036914;28;20076;-78
2021/03/06 08:40:07;;;;;;;7.53;4.07;;;179.20;1280.00;;;;;;5035622;28;20083;-78
2021/03/06 08:42:40;;;;;;;11.02;4.85;;;154.50;1254.40;;;;;;5019203;28;20029;-78
2021/03/06 08:45:18;;;;;;;9.40;4.20;;;179.30;1280.00;;;;;;5036977;28;20025;-78
2021/03/06 08:47:47;;;;;;;9.07;5.18;;;179.30;1254.40;;;;;;5016049;28;20029;-78
2021/03/06 08:50:14;;;;;;;13.65;5.63;;;179.30;1228.80;;;;;;5019182;28;20022;-78
2021/03/06 08:52:40;;;;;;;11.02;4.35;;;179.40;1203.20;;;;;;5036469;28;20432;-77
2021/03/06 08:55:09;;;;;;;11.85;5.25;;;179.40;1177.60;;;;;;5018929;28;20022;-78
2021/03/06 08:57:37;;;;;;;9.52;4.10;;;179.40;1203.20;;;;;;5036125;28;20112;-75
2021/03/06 09:00:27;;;;;;;6.55;3.25;;;179.70;1126.40;;;;;;5033430;28;20022;-77
2021/03/06 09:02:54;;;;;;;10.13;4.65;;;179.60;1126.40;;;;;;5033047;28;20038;-77
2021/03/06 09:05:20;;;;;;;8.18;3.97;;;179.90;1126.40;;;;;;5017544;28;21155;-79
2021/03/06 09:07:48;;;;;;;6.80;3.50;;;179.70;1100.80;;;;;;5035926;28;20104;-77
2021/03/06 09:10:20;;;;;;;6.32;3.15;;;179.80;1126.40;;;;;;5036046;28;20089;-80
2021/03/06 09:12:48;;;;;;;7.40;3.08;;;180.00;1049.60;;;;;;5029160;28;20038;-78
2021/03/06 09:15:25;;;;;;;8.13;3.88;;;180.00;1049.60;;;;;;5016511;28;20034;-78
2021/03/06 09:17:51;;;;;;;5.82;3.22;;;180.10;1126.40;;;;;;5015837;28;20030;-78
2021/03/06 09:20:17;;;;;;;;;;;205.00;1075.20;;;;;;5015674;28;20118;-78
2021/03/06 09:22:48;;;;;;;8.77;3.97;;;205.20;1024.00;;;;;;5016385;28;19979;-77
2021/03/06 09:25:14;;;;;;;10.23;3.80;;;205.20;947.20;;;;;;5003704;28;20213;-75
2021/03/06 09:27:47;;;;;;;;;;;205.10;998.40;;;;;;5018984;28;20041;-78
2021/03/06 09:30:28;;;;;;;8.02;3.50;;;205.50;972.80;;;;;;5034897;28;19948;-78
2021/03/06 09:32:55;;;;;;;9.07;4.20;;;205.20;947.20;;;;;;5017988;28;20297;-78
2021/03/06 09:35:22;;;;;;;9.38;4.03;;;205.00;972.80;;;;;;5035355;28;20033;-80
2021/03/06 09:38:06;;;;;;;8.00;3.42;;;205.20;947.20;;;;;;5018433;28;20048;-78
2021/03/06 09:40:41;;;;;;;5.70;2.95;;;205.40;947.20;;;;;;5035830;28;20026;-78
2021/03/06 09:43:08;;;;;;;12.13;3.97;;;205.70;921.60;;;;;;5017560;28;20476;-79
2021/03/06 09:45:34;;;;;;;6.85;3.10;;;205.70;896.00;;;;;;5014988;28;20017;-83
2021/03/06 09:48:04;;;;;;;;;;;230.50;921.60;;;;;;5018288;28;20405;-82
2021/03/06 09:50:30;;;;;;;5.32;2.45;;;230.60;870.40;;;;;;5025961;28;19966;-78
2021/03/06 09:52:56;;;;;;;6.47;2.83;;;230.70;819.20;;;;;;5017292;28;20034;-82
2021/03/06 09:55:22;;;;;;;;;;;230.70;819.20;;;;;;5017820;28;20120;-79
2021/03/06 09:57:47;;;;;;;10.00;4.05;;;231.00;896.00;;;;;;5017158;28;19979;-78
2021/03/06 10:00:25;;;;;;;;;;;230.90;819.20;;;;;;5017502;28;20079;-76
2021/03/06 10:02:52;;;;;;;6.60;3.42;;;230.60;844.80;;;;;;5033793;28;19913;-76
2021/03/06 10:05:22;;;;;;;6.45;2.80;;;230.40;844.80;;;;;;5016629;28;20470;-75
2021/03/06 10:07:55;;;;;;;12.77;4.57;;;230.50;870.40;;;;;;5017334;28;20116;-77
2021/03/06 10:10:26;;;;;;;8.43;3.83;;;230.90;819.20;;;;;;5014925;28;20032;-79
2021/03/06 10:12:52;;;;;;;4.35;2.80;;;231.10;870.40;;;;;;5034841;28;20013;-77
2021/03/06 10:15:19;;;;;;;5.80;3.15;;;256.30;819.20;;;;;;5034764;28;20022;-78
2021/03/06 10:17:45;;;;;;;7.72;3.47;;;256.30;793.60;;;;;;5017117;28;20034;-78
2021/03/06 10:20:12;;;;;;;6.10;2.72;;;256.50;742.40;;;;;;5016781;28;20033;-77
2021/03/06 10:22:48;;;;;;;6.97;4.10;;;256.60;742.40;;;;;;5033751;28;20029;-79
2021/03/06 10:25:25;;;;;;;4.25;2.58;;;256.70;691.20;;;;;;5017176;28;20481;-78
2021/03/06 10:27:51;;;;;;;10.90;3.70;;;256.70;691.20;;;;;;5035085;28;20066;-77
2021/03/06 10:30:20;;;;;;;8.48;3.78;;;256.80;742.40;;;;;;5035001;28;20049;-78
2021/03/06 10:32:52;;;;;;;7.05;2.97;;;256.80;691.20;;;;;;5033437;28;20366;-78
2021/03/06 10:35:40;;;;;;;8.73;3.00;;;282.00;716.80;;;;;;5017053;28;20389;-77
2021/03/06 10:38:06;;;;;;;5.85;3.45;;;282.00;691.20;;;;;;5014821;28;20021;-77
2021/03/06 10:40:46;;;;;;;7.38;2.88;;;282.00;691.20;;;;;;5016413;28;20477;-78
2021/03/06 10:43:24;;;;;;;6.13;2.55;;;282.20;665.60;;;;;;5030040;28;20121;-77
2021/03/06 10:45:50;;;;;;;5.18;2.78;;;282.50;665.60;;;;;;5030076;28;20026;-78
2021/03/06 10:48:27;;;;;;;7.75;3.33;;;282.50;665.60;;;;;;4997474;28;20028;-77
2021/03/06 10:50:54;;;;;;;6.25;3.22;;;307.40;665.60;;;;;;4997189;28;20101;-77
2021/03/06 10:53:21;;;;;;;7.75;3.70;;;307.20;640.00;;;;;;4996938;28;20117;-77
2021/03/06 10:55:48;;;;;;;11.27;4.40;;;282.50;614.40;;;;;;5027948;28;20153;-76
2021/03/06 10:58:15;;;;;;;6.90;3.13;;;307.40;691.20;;;;;;5013046;28;20525;-79
2021/03/06 11:00:42;;;;;;;6.45;3.53;;;307.20;665.60;;;;;;5015605;28;20038;-76
2021/03/06 11:03:10;;;;;;;7.30;3.28;;;282.50;691.20;;;;;;5015945;28;20059;-76
2021/03/06 11:05:41;;;;;;;8.30;3.40;;;282.50;640.00;;;;;;5015898;28;20063;-80
2021/03/06 11:08:18;;;;;;;8.75;3.70;;;282.00;691.20;;;;;;5033701;28;20474;-76
2021/03/06 11:10:47;;;;;;;6.78;3.65;;;307.70;665.60;;;;;;5016439;28;20090;-75
2021/03/06 11:13:13;;;;;;;8.00;3.42;;;307.90;640.00;;;;;;5033836;28;20053;-75
2021/03/06 11:15:51;;;;;;;6.90;4.65;;;307.90;640.00;;;;;;5033961;28;20501;-75
2021/03/06 11:18:17;;;;;;;7.28;4.05;;;307.80;640.00;;;;;;5033733;28;20033;-77
2021/03/06 11:20:43;;;;;;;6.20;3.67;;;307.30;665.60;;;;;;5034031;28;20044;-79
2021/03/06 11:23:09;;;;;;;7.22;3.42;;;281.90;665.60;;;;;;5016435;28;20025;-79
2021/03/06 11:25:35;;;;;;;7.95;3.90;;;281.60;716.80;;;;;;5033806;28;20370;-81
2021/03/06 11:28:04;;;;;;;9.82;3.72;;;282.50;614.40;;;;;;5016395;28;20083;-79
2021/03/06 11:30:36;;;;;;;10.15;5.53;;;282.20;691.20;;;;;;5016476;28;20031;-80
2021/03/06 11:33:04;;;;;;;6.88;3.40;;;282.10;665.60;;;;;;5016026;28;20176;-80
2021/03/06 11:35:30;;;;;;;7.97;3.80;;;307.20;665.60;;;;;;5033762;28;20444;-79
2021/03/06 11:37:57;;;;;;;8.52;5.20;;;307.50;665.60;;;;;;5016267;28;20041;-78
2021/03/06 11:40:28;;;;;;;7.80;3.75;;;307.60;691.20;;;;;;5015915;28;20021;-79
2021/03/06 11:42:54;;;;;;;6.25;3.53;;;307.80;614.40;;;;;;5016184;28;20032;-76
2021/03/06 11:45:21;;;;;;;12.63;5.75;;;307.60;640.00;;;;;;5033249;28;20018;-80
2021/03/06 11:47:48;;;;;;;8.23;3.63;;;281.80;691.20;;;;;;5015332;28;20585;-77
2021/03/06 11:50:17;;;;;;;8.68;3.30;;;282.40;614.40;;;;;;5031636;28;20065;-77
2021/03/06 11:55:17;;;;;;;11.30;5.43;;;307.70;665.60;;;;;;5035925;28;20049;-79
2021/03/06 11:57:43;;;;;;;7.15;3.85;;;308.10;614.40;;;;;;5032914;28;20029;-81
2021/03/06 12:00:10;;;;;;;15.23;7.43;;;307.80;614.40;;;;;;5015776;28;20021;-80
2021/03/06 12:02:36;;;;;;;23.42;12.07;;;332.90;665.60;;;;;;5017226;28;20021;-77
2021/03/06 12:05:03;;;;;;;20.15;4.00;;;333.40;640.00;;;;;;5023321;28;20040;-78
2021/03/06 12:07:29;;;;;;;6.22;3.03;;;333.20;614.40;;;;;;5017442;28;20032;-79
2021/03/06 12:09:55;;;;;;;7.45;3.92;;;332.90;640.00;;;;;;5037403;28;20112;-79
2021/03/06 12:12:20;;;;;;;;;;;307.30;614.40;;;;;;5026573;28;20026;-79
2021/03/06 12:14:46;;;;;;;6.88;3.20;;;282.50;614.40;;;;;;5025942;28;20363;-78
2021/03/06 12:17:12;;;;;;;7.78;4.10;;;282.40;614.40;;;;;;5023432;28;20053;-79
2021/03/06 12:19:39;;;;;;;7.80;4.35;;;307.30;588.80;;;;;;5015548;28;20025;-79
2021/03/06 12:22:06;;;;;;;7.88;3.15;;;332.90;614.40;;;;;;5015509;28;20057;-79
2021/03/06 12:24:31;;;;;;;7.05;3.40;;;307.50;588.80;;;;;;5015306;28;20037;-78
2021/03/06 12:26:57;;;;;;;6.43;3.60;;;307.90;614.40;;;;;;5033152;28;20033;-78
2021/03/06 12:29:23;;;;;;;;;;;307.90;614.40;;;;;;5015617;28;20124;-78
2021/03/06 12:31:49;;;;;;;8.02;4.93;;;307.90;588.80;;;;;;5015416;28;19909;-78
2021/03/06 12:34:15;;;;;;;;;;;308.00;614.40;;;;;;5015845;28;20377;-79
2021/03/06 12:36:41;;;;;;;5.40;2.78;;;333.40;640.00;;;;;;5037057;28;19961;-78